createdAt,value
2022-08-08T03:28:11.441Z,95070.97
2022-08-08T03:31:22.520Z,95079.38
2022-08-08T03:34:01.081Z,95081.75
2022-08-08T03:36:46.424Z,95074.13
2022-08-08T03:39:29.775Z,95075.69
2022-08-08T03:42:30.563Z,95074.66
2022-08-08T03:46:05.359Z,95084.09
2022-08-08T03:49:09.168Z,95078.34
2022-08-08T03:51:40.471Z,95086.19
2022-08-08T03:54:40.842Z,95085.69
2022-08-08T03:58:30.757Z,95094.63
2022-08-08T04:00:56.391Z,95088.34
2022-08-08T04:03:57.600Z,95100.41
2022-08-08T04:06:56.374Z,95097.28
2022-08-08T04:10:03.188Z,95096.47
2022-08-08T04:12:42.717Z,95098.84
2022-08-08T04:15:38.177Z,95103.03
2022-08-08T04:18:23.517Z,95099.88
2022-08-08T04:21:06.750Z,95099.09
2022-08-08T04:24:05.251Z,95099.34
2022-08-08T04:26:57.463Z,95106.19
2022-08-08T04:29:55.435Z,95105.41
2022-08-08T04:32:47.805Z,95102.78
2022-08-08T04:35:39.524Z,95116.19
2022-08-08T04:38:23.104Z,95120.91
2022-08-08T04:41:07.777Z,95113.56
2022-08-08T04:43:54.268Z,95123.03
2022-08-08T04:46:40.645Z,95114.06
2022-08-08T04:49:29.050Z,95117.75
2022-08-08T04:52:33.991Z,95106.44
2022-08-08T04:55:18.416Z,95120.34
2022-08-08T04:58:01.594Z,95117.97
2022-08-08T05:00:45.091Z,95126.91
2022-08-08T05:04:09.119Z,95125.59
2022-08-08T05:06:34.054Z,95122.97
2022-08-08T05:09:21.158Z,95129.53
2022-08-08T05:12:04.364Z,95122.91
2022-08-08T05:14:53.211Z,95130.78
2022-08-08T05:17:53.352Z,95125.75
2022-08-08T05:20:48.285Z,95140.75
2022-08-08T05:23:32.133Z,95135.69
2022-08-08T05:26:27.477Z,95131.16
2022-08-08T05:29:10.784Z,95134.28
2022-08-08T05:32:03.057Z,95135.56
2022-08-08T05:34:49.555Z,95139.44
2022-08-08T05:37:53.657Z,95148.94
2022-08-08T05:40:37.745Z,95147.69
2022-08-08T05:43:39.380Z,95139.41
2022-08-08T05:46:30.391Z,95133.75
2022-08-08T05:49:17.677Z,95149.09
2022-08-08T05:52:01.694Z,95142.75
2022-08-08T05:54:50.034Z,95148.72
2022-08-08T05:58:05.439Z,95138.06
2022-08-08T06:00:44.475Z,95142.97
2022-08-08T06:03:42.889Z,95142.00
2022-08-08T06:06:36.803Z,95140.72
2022-08-08T06:09:58.621Z,95136.09
2022-08-08T06:12:30.736Z,95150.47
2022-08-08T06:15:16.235Z,95141.34
2022-08-08T06:18:20.039Z,95144.78
2022-08-08T06:21:11.535Z,95150.69
2022-08-08T06:24:13.834Z,95148.66
2022-08-08T06:27:10.774Z,95146.22
2022-08-08T06:30:03.797Z,95142.31
2022-08-08T06:32:52.769Z,95158.38
2022-08-08T06:36:07.094Z,95150.13
2022-08-08T06:38:48.008Z,95153.56
2022-08-08T06:41:33.937Z,95156.97
2022-08-08T06:44:25.113Z,95154.63
2022-08-08T06:47:09.658Z,95148.84
2022-08-08T06:49:55.274Z,95155.16
2022-08-08T06:52:42.947Z,95154.72
2022-08-08T06:55:37.621Z,95160.03
2022-08-08T06:58:30.239Z,95160.94
2022-08-08T07:02:17.291Z,95154.00
2022-08-08T07:04:39.645Z,95151.16
2022-08-08T07:07:35.199Z,95159.06
2022-08-08T07:10:23.076Z,95156.66
2022-08-08T07:13:08.533Z,95156.06
2022-08-08T07:16:10.157Z,95157.22
2022-08-08T07:19:10.993Z,95153.38
2022-08-08T07:22:05.505Z,95148.97
2022-08-08T07:25:06.622Z,95155.09
2022-08-08T07:28:02.706Z,95156.22
2022-08-08T07:30:51.266Z,95150.44
2022-08-08T07:33:38.006Z,95148.38
2022-08-08T07:36:36.620Z,95154.28
2022-08-08T07:39:29.871Z,95151.72
2022-08-08T07:42:33.370Z,95156.78
2022-08-08T07:45:19.317Z,95154.25
2022-08-08T07:48:05.149Z,95154.91
2022-08-08T07:50:50.190Z,95144.97
2022-08-08T07:54:01.379Z,95148.34
2022-08-08T07:56:50.326Z,95151.19
2022-08-08T07:59:39.286Z,95141.53
2022-08-08T08:02:38.819Z,95142.97
2022-08-08T08:05:26.398Z,95135.88
2022-08-08T08:08:20.415Z,95141.88
2022-08-08T08:11:04.552Z,95146.28
2022-08-08T08:14:08.222Z,95140.69
2022-08-08T08:16:53.702Z,95132.47
2022-08-08T08:19:45.694Z,95135.06
2022-08-08T08:22:33.682Z,95136.53
2022-08-08T08:25:19.397Z,95136.47
2022-08-08T08:28:24.056Z,95128.41
2022-08-08T08:31:07.922Z,95128.56
2022-08-08T08:33:51.090Z,95131.53
2022-08-08T08:36:37.113Z,95128.81
2022-08-08T08:39:23.071Z,95131.19
2022-08-08T08:42:07.798Z,95134.13
2022-08-08T08:44:53.052Z,95126.34
2022-08-08T08:47:44.825Z,95123.59
2022-08-08T08:50:33.581Z,95124.91
2022-08-08T08:53:27.916Z,95121.66
2022-08-08T08:56:24.151Z,95113.97
2022-08-08T08:59:08.908Z,95104.41
2022-08-08T09:01:59.600Z,95101.66
2022-08-08T09:04:50.232Z,95103.50
2022-08-08T09:07:39.572Z,95113.88
2022-08-08T09:10:39.449Z,95102.88
2022-08-08T09:13:28.131Z,95107.19
2022-08-08T09:16:11.535Z,95109.75
2022-08-08T09:18:57.878Z,95104.06
2022-08-08T09:21:57.181Z,95104.28
2022-08-08T09:24:45.606Z,95095.63
2022-08-08T09:27:42.071Z,95088.44
2022-08-08T09:30:40.197Z,95093.97
2022-08-08T09:34:15.192Z,95094.44
2022-08-08T09:36:31.154Z,95089.88
2022-08-08T09:39:21.776Z,95088.22
2022-08-08T09:42:20.511Z,95067.69
2022-08-08T09:45:15.631Z,95069.94
2022-08-08T09:48:16.219Z,95055.88
2022-08-08T09:51:05.908Z,95054.91
2022-08-08T09:54:06.895Z,95054.91
2022-08-08T09:57:03.036Z,95057.56
2022-08-08T10:00:14.639Z,95055.47
2022-08-08T10:02:58.367Z,95046.78
2022-08-08T10:05:43.152Z,95033.81
2022-08-08T10:08:33.439Z,95042.72
2022-08-08T10:12:28.217Z,95035.50
2022-08-08T10:14:28.184Z,95027.44
2022-08-08T10:17:57.135Z,95017.13
2022-08-08T10:20:40.161Z,95023.38
2022-08-08T10:23:42.417Z,95011.72
2022-08-08T10:26:58.665Z,95006.59
2022-08-08T10:29:57.096Z,95012.72
2022-08-08T10:32:48.248Z,94997.69
2022-08-08T10:36:12.594Z,95002.22
2022-08-08T10:38:40.634Z,95011.50
2022-08-08T10:41:35.106Z,95007.84
2022-08-08T10:44:25.504Z,95006.50
2022-08-08T10:47:11.519Z,94996.69
2022-08-08T10:50:02.071Z,95002.72
2022-08-08T10:52:47.538Z,94998.88
2022-08-08T10:55:41.037Z,94994.25
2022-08-08T10:58:29.581Z,94991.47
2022-08-08T11:01:15.632Z,94995.00
2022-08-08T11:04:02.669Z,94996.59
2022-08-08T11:06:49.429Z,94977.97
2022-08-08T11:09:34.291Z,94986.41
2022-08-08T11:12:17.651Z,94971.84
2022-08-08T11:15:01.548Z,94968.72
2022-08-08T11:17:59.849Z,94974.09
2022-08-08T11:20:52.100Z,94991.03
2022-08-08T11:23:37.767Z,94978.47
2022-08-08T11:26:27.913Z,94975.38
2022-08-08T11:29:11.878Z,94976.91
2022-08-08T11:31:59.594Z,94972.09
2022-08-08T11:35:12.807Z,94976.97
2022-08-08T11:38:38.624Z,94982.06
2022-08-08T11:40:52.908Z,94976.03
2022-08-08T11:43:42.599Z,94959.66
2022-08-08T11:46:27.979Z,94967.84
2022-08-08T11:49:14.601Z,94955.00
2022-08-08T11:51:58.169Z,94957.53
2022-08-08T11:54:46.628Z,94955.53
2022-08-08T11:57:35.000Z,94953.06
2022-08-08T12:00:20.841Z,94952.81
2022-08-08T12:03:20.766Z,94954.94
2022-08-08T12:06:14.182Z,94961.31
2022-08-08T12:09:06.945Z,94954.84
2022-08-08T12:11:50.004Z,94955.56
2022-08-08T12:14:33.791Z,94946.44
2022-08-08T12:17:18.504Z,94941.28
2022-08-08T12:20:03.728Z,94935.91
2022-08-08T12:22:51.235Z,94937.72
2022-08-08T12:25:38.378Z,94935.41
2022-08-08T12:28:28.082Z,94949.19
2022-08-08T12:31:12.002Z,94933.03
2022-08-08T12:34:02.642Z,94946.97
2022-08-08T12:36:49.159Z,94944.13
2022-08-08T12:40:01.236Z,94944.75
2022-08-08T12:42:47.354Z,94935.41
2022-08-08T12:45:58.422Z,94930.97
2022-08-08T12:48:39.071Z,94932.31
2022-08-08T12:51:23.692Z,94933.09
2022-08-08T12:54:25.311Z,94931.09
2022-08-08T12:57:17.463Z,94928.22
2022-08-08T13:00:03.278Z,94917.69
2022-08-08T13:03:01.026Z,94916.28
2022-08-08T13:06:04.001Z,94911.06
2022-08-08T13:08:53.129Z,94906.44
2022-08-08T13:12:36.707Z,94907.97
2022-08-08T13:14:53.524Z,94912.31
2022-08-08T13:17:53.978Z,94912.16
2022-08-08T13:20:48.835Z,94902.03
2022-08-08T13:23:36.693Z,94910.38
2022-08-08T13:26:32.191Z,94907.75
2022-08-08T13:29:16.247Z,94892.91
2022-08-08T13:32:04.636Z,94891.47
2022-08-08T13:34:52.651Z,94905.09
2022-08-08T13:38:04.821Z,94902.72
2022-08-08T13:40:40.939Z,94901.72
2022-08-08T13:43:26.282Z,94896.88
2022-08-08T13:46:26.318Z,94904.75
2022-08-08T13:50:35.789Z,94891.75
2022-08-08T13:52:37.949Z,94891.00
2022-08-08T13:55:29.438Z,94893.78
2022-08-08T13:58:20.460Z,94887.16
2022-08-08T14:01:16.173Z,94879.81
2022-08-08T14:04:03.252Z,94883.97
2022-08-08T14:06:47.413Z,94888.81
2022-08-08T14:10:02.493Z,94886.91
2022-08-08T14:12:40.034Z,94889.81
2022-08-08T14:15:46.075Z,94886.69
2022-08-08T14:18:51.955Z,94882.25
2022-08-08T14:21:48.789Z,94883.22
2022-08-08T14:24:35.962Z,94887.34
2022-08-08T14:27:28.905Z,94882.25
2022-08-08T14:30:18.262Z,94885.75
2022-08-08T14:33:01.598Z,94885.22
2022-08-08T14:35:49.712Z,94883.22
2022-08-08T14:38:51.933Z,94878.31
2022-08-08T14:41:45.595Z,94880.25
2022-08-08T14:44:39.452Z,94874.81
2022-08-08T14:47:22.814Z,94883.41
2022-08-08T14:50:14.161Z,94882.38
2022-08-08T14:53:03.681Z,94877.53
2022-08-08T14:55:47.352Z,94877.13
2022-08-08T14:58:45.379Z,94871.81
2022-08-08T15:01:41.013Z,94877.59
2022-08-08T15:04:26.349Z,94878.41
2022-08-08T15:07:24.181Z,94878.00
2022-08-08T15:10:16.360Z,94881.09
2022-08-08T15:12:59.461Z,94879.41
2022-08-08T15:16:02.474Z,94877.78
2022-08-08T15:18:51.442Z,94876.25
2022-08-08T15:21:37.903Z,94876.81
2022-08-08T15:24:31.086Z,94875.72
2022-08-08T15:28:04.487Z,94878.50
2022-08-08T15:30:19.694Z,94875.53
2022-08-08T15:33:02.756Z,94881.53
2022-08-08T15:35:45.817Z,94882.75
2022-08-08T15:38:31.237Z,94875.72
2022-08-08T15:41:14.526Z,94876.19
2022-08-08T15:44:01.244Z,94872.16
2022-08-08T15:46:45.236Z,94874.50
2022-08-08T15:49:29.515Z,94876.16
2022-08-08T15:52:14.452Z,94871.84
2022-08-08T15:54:58.082Z,94877.94
2022-08-08T15:57:41.168Z,94877.28
2022-08-08T16:00:28.267Z,94878.19
2022-08-08T16:03:11.657Z,94882.22
2022-08-08T16:06:01.896Z,94872.63
2022-08-08T16:09:02.321Z,94872.66
2022-08-08T16:13:05.740Z,94869.75
2022-08-08T16:14:54.384Z,94874.97
2022-08-08T16:18:06.483Z,94876.00
2022-08-08T16:20:42.126Z,94879.97
2022-08-08T16:23:25.326Z,94878.19
2022-08-08T16:26:13.212Z,94876.50
2022-08-08T16:29:01.395Z,94879.53
2022-08-08T16:31:49.543Z,94889.09
2022-08-08T16:34:34.338Z,94889.75
2022-08-08T16:37:17.688Z,94892.66
2022-08-08T16:40:03.572Z,94897.06
2022-08-08T16:42:51.501Z,94895.00
2022-08-08T16:46:36.282Z,94899.09
2022-08-08T16:48:40.524Z,94899.75
2022-08-08T16:55:05.800Z,94910.34
2022-08-08T16:55:06.678Z,94907.03
2022-08-08T16:58:14.495Z,94919.69
2022-08-08T17:00:36.321Z,94921.78
2022-08-08T17:03:25.148Z,94927.78
2022-08-08T17:06:37.743Z,94923.75
2022-08-08T17:09:34.992Z,94933.41
2022-08-08T17:12:28.828Z,94934.03
2022-08-08T17:15:17.823Z,94933.63
2022-08-08T17:18:04.654Z,94932.69
2022-08-08T17:20:53.814Z,94942.00
2022-08-08T17:24:01.499Z,94932.75
2022-08-08T17:26:42.104Z,94932.66
2022-08-08T17:29:28.580Z,94938.13
2022-08-08T17:32:17.554Z,94937.69
2022-08-08T17:35:53.258Z,94941.00
2022-08-08T17:38:15.390Z,94935.41
2022-08-08T17:40:58.498Z,94945.75
2022-08-08T17:44:00.766Z,94940.03
2022-08-08T17:46:46.953Z,94951.53
2022-08-08T17:49:42.639Z,94952.50
2022-08-08T17:52:28.134Z,94958.97
2022-08-08T17:56:05.055Z,94960.91
2022-08-08T17:58:17.865Z,94964.38
2022-08-08T18:01:10.057Z,94979.63
2022-08-08T18:03:53.410Z,94972.59
2022-08-08T18:06:42.908Z,94987.66
2022-08-08T18:09:27.517Z,94978.91
2022-08-08T18:12:20.934Z,94982.38
2022-08-08T18:15:04.011Z,94992.63
2022-08-08T18:18:27.238Z,94992.13
2022-08-08T18:20:59.712Z,95006.25
2022-08-08T18:23:43.144Z,95001.22
2022-08-08T18:26:36.244Z,95005.00
2022-08-08T18:29:22.856Z,95006.91
2022-08-08T18:32:10.605Z,95015.03
2022-08-08T18:34:57.363Z,95017.69
2022-08-08T18:37:48.041Z,95022.53
2022-08-08T18:40:35.422Z,95024.06
2022-08-08T18:43:18.786Z,95023.88
2022-08-08T18:46:55.465Z,95040.25
2022-08-08T18:49:07.025Z,95030.09
2022-08-08T18:51:55.512Z,95033.31
2022-08-08T18:54:39.038Z,95042.00
2022-08-08T18:57:24.067Z,95038.63
2022-08-08T19:00:13.920Z,95040.91
2022-08-08T19:03:04.248Z,95048.03
2022-08-08T19:05:51.580Z,95052.84
2022-08-08T19:08:36.300Z,95060.75
2022-08-08T19:11:23.319Z,95054.56
2022-08-08T19:14:10.498Z,95050.03
2022-08-08T19:16:55.719Z,95056.28
2022-08-08T19:19:44.156Z,95051.63
2022-08-08T19:22:44.811Z,95049.47
2022-08-08T19:26:00.977Z,95059.13
2022-08-08T19:28:32.393Z,95054.03
2022-08-08T19:31:19.726Z,95053.25
2022-08-08T19:34:35.539Z,95052.09
2022-08-08T19:37:16.354Z,95052.13
2022-08-08T19:39:59.853Z,95058.78
2022-08-08T19:42:44.595Z,95044.06
2022-08-08T19:45:59.091Z,95044.47
2022-08-08T19:48:31.779Z,95043.56
2022-08-08T19:51:15.549Z,95042.91
2022-08-08T19:54:08.486Z,95040.47
2022-08-08T19:56:51.639Z,95044.75
2022-08-08T19:59:39.290Z,95045.06
2022-08-08T20:02:23.497Z,95047.97
2022-08-08T20:05:08.291Z,95050.31
2022-08-08T20:08:28.726Z,95046.50
2022-08-08T20:10:58.803Z,95053.84
2022-08-08T20:14:13.235Z,95044.41
2022-08-08T20:16:46.294Z,95050.28
2022-08-08T20:19:42.028Z,95033.81
2022-08-08T20:22:30.521Z,95040.59
2022-08-08T20:25:14.707Z,95041.56
2022-08-08T20:28:07.561Z,95047.34
2022-08-08T20:30:59.854Z,95049.88
2022-08-08T20:34:27.658Z,95055.56
2022-08-08T20:36:47.619Z,95050.59
2022-08-08T20:39:38.957Z,95053.03
2022-08-08T20:42:28.629Z,95056.75
2022-08-08T20:45:12.969Z,95049.59
2022-08-08T20:48:07.109Z,95052.34
2022-08-08T20:50:51.546Z,95057.94
2022-08-08T20:53:58.421Z,95046.09
2022-08-08T20:57:03.955Z,95059.75
2022-08-08T20:59:42.763Z,95053.66
2022-08-08T21:02:27.294Z,95057.38
2022-08-08T21:05:11.303Z,95056.97
2022-08-08T21:08:36.100Z,95049.13
2022-08-08T21:10:58.848Z,95056.41
2022-08-08T21:13:42.861Z,95053.16
2022-08-08T21:16:29.019Z,95058.53
2022-08-08T21:19:12.357Z,95061.47
2022-08-08T21:21:56.724Z,95065.69
2022-08-08T21:24:42.034Z,95048.91
2022-08-08T21:28:05.427Z,95051.06
2022-08-08T21:30:39.338Z,95054.78
2022-08-08T21:33:24.080Z,95058.50
2022-08-08T21:36:20.391Z,95052.78
2022-08-08T21:39:04.414Z,95065.34
2022-08-08T21:41:53.428Z,95070.00
2022-08-08T21:44:58.923Z,95070.31
2022-08-08T21:48:06.528Z,95075.00
2022-08-08T21:50:48.168Z,95072.91
2022-08-08T21:54:22.980Z,95077.75
2022-08-08T21:56:43.449Z,95083.84
2022-08-08T22:00:01.257Z,95085.31
2022-08-08T22:02:32.388Z,95083.22
2022-08-08T22:05:17.323Z,95085.44
2022-08-08T22:08:00.656Z,95083.94
2022-08-08T22:10:45.257Z,95075.00
2022-08-08T22:13:47.688Z,95075.41
2022-08-08T22:16:35.790Z,95081.38
2022-08-08T22:19:18.875Z,95072.28
2022-08-08T22:22:06.923Z,95083.28
2022-08-08T22:24:56.254Z,95087.75
2022-08-08T22:28:04.013Z,95088.94
2022-08-08T22:30:42.883Z,95083.75
2022-08-08T22:34:12.013Z,95080.09
2022-08-08T22:36:34.744Z,95090.94
2022-08-08T22:39:19.480Z,95089.16
2022-08-08T22:42:06.738Z,95087.72
2022-08-08T22:44:49.902Z,95090.56
2022-08-08T22:47:37.546Z,95092.50
2022-08-08T22:50:27.378Z,95080.22
2022-08-08T22:54:30.437Z,95084.84
2022-08-08T22:56:14.881Z,95084.06
2022-08-08T22:58:58.246Z,95093.84
2022-08-08T23:02:03.077Z,95081.66
2022-08-08T23:04:57.736Z,95073.81
2022-08-08T23:07:51.328Z,95077.53
2022-08-08T23:10:40.326Z,95085.00
2022-08-08T23:13:25.465Z,95077.78
2022-08-08T23:16:38.329Z,95072.50
2022-08-08T23:19:25.554Z,95072.53
2022-08-08T23:22:10.282Z,95073.84
2022-08-08T23:27:39.486Z,95075.63
2022-08-08T23:30:29.637Z,95074.00
2022-08-08T23:33:19.211Z,95075.06
2022-08-08T23:36:07.868Z,95079.63
2022-08-08T23:38:52.943Z,95081.84
2022-08-08T23:41:46.128Z,95079.91
2022-08-08T23:44:32.586Z,95082.72
2022-08-08T23:49:05.626Z,95082.72
2022-08-08T23:50:30.812Z,95075.91
2022-08-08T23:53:14.410Z,95072.69
2022-08-08T23:55:57.615Z,95087.38
2022-08-08T23:58:43.190Z,95086.47
